createdAt,value
2022-09-07T00:02:20.713Z,14.57
2022-09-07T00:04:47.285Z,14.54
2022-09-07T00:07:13.999Z,14.53
2022-09-07T00:09:40.611Z,14.50
2022-09-07T00:12:07.280Z,14.50
2022-09-07T00:14:34.602Z,14.47
2022-09-07T00:17:01.181Z,14.45
2022-09-07T00:19:27.785Z,14.46
2022-09-07T00:21:54.421Z,14.47
2022-09-07T00:24:21.001Z,14.43
2022-09-07T00:26:47.608Z,14.50
2022-09-07T00:29:14.162Z,14.54
2022-09-07T00:31:40.791Z,14.54
2022-09-07T00:34:07.522Z,14.51
2022-09-07T00:36:34.201Z,14.51
2022-09-07T00:39:00.838Z,14.48
2022-09-07T00:41:27.654Z,14.50
2022-09-07T00:43:59.760Z,14.53
2022-09-07T00:46:28.836Z,14.48
2022-09-07T00:48:59.810Z,14.52
2022-09-07T00:51:40.857Z,14.48
2022-09-07T00:54:15.542Z,14.46
2022-09-07T00:56:45.040Z,14.50
2022-09-07T00:59:14.353Z,14.55
2022-09-07T01:01:41.447Z,14.57
2022-09-07T01:04:09.178Z,14.59
2022-09-07T01:06:37.586Z,14.59
2022-09-07T01:09:07.137Z,14.60
2022-09-07T01:11:35.118Z,14.57
2022-09-07T01:14:04.853Z,14.61
2022-09-07T01:17:05.318Z,14.59
2022-09-07T01:19:59.497Z,14.58
2022-09-07T01:22:52.467Z,14.60
2022-09-07T01:25:49.695Z,14.53
2022-09-07T01:28:21.832Z,14.62
2022-09-07T01:30:58.061Z,14.58
2022-09-07T01:33:48.840Z,14.60
2022-09-07T01:36:18.167Z,14.52
2022-09-07T01:38:50.439Z,14.58
2022-09-07T01:41:25.493Z,14.67
2022-09-07T01:44:01.041Z,14.63
2022-09-07T01:46:36.397Z,14.67
2022-09-07T01:49:10.448Z,14.62
2022-09-07T01:51:42.547Z,14.65
2022-09-07T01:54:21.389Z,14.69
2022-09-07T01:56:51.139Z,14.75
2022-09-07T01:59:28.675Z,14.73
2022-09-07T02:02:04.215Z,14.78
2022-09-07T02:04:48.625Z,14.75
2022-09-07T02:07:26.910Z,14.74
2022-09-07T02:10:06.617Z,14.74
2022-09-07T02:12:39.441Z,14.78
2022-09-07T02:15:14.737Z,14.83
2022-09-07T02:17:54.431Z,14.81
2022-09-07T02:20:29.495Z,14.77
2022-09-07T02:23:00.395Z,14.79
2022-09-07T02:25:37.891Z,14.86
2022-09-07T02:28:12.452Z,14.88
2022-09-07T02:30:39.134Z,14.85
2022-09-07T02:33:06.023Z,14.77
2022-09-07T02:35:33.188Z,14.80
2022-09-07T02:38:03.142Z,14.85
2022-09-07T02:40:30.022Z,14.82
2022-09-07T02:43:00.196Z,14.80
2022-09-07T02:45:33.779Z,14.87
2022-09-07T02:48:06.439Z,14.88
2022-09-07T02:50:58.732Z,14.86
2022-09-07T02:53:39.560Z,14.91
2022-09-07T02:56:39.183Z,14.86
2022-09-07T02:59:30.313Z,14.90
2022-09-07T03:02:12.352Z,14.84
2022-09-07T03:04:48.913Z,14.91
2022-09-07T03:07:29.478Z,14.82
2022-09-07T03:09:57.999Z,14.77
2022-09-07T03:12:24.950Z,14.74
2022-09-07T03:14:51.551Z,14.73
2022-09-07T03:17:18.267Z,14.72
2022-09-07T03:19:44.863Z,14.75
2022-09-07T03:22:11.491Z,14.69
2022-09-07T03:24:38.100Z,14.79
2022-09-07T03:27:04.737Z,14.73
2022-09-07T03:29:31.400Z,14.74
2022-09-07T03:31:57.979Z,14.67
2022-09-07T03:34:24.570Z,14.68
2022-09-07T03:36:51.143Z,14.72
2022-09-07T03:39:20.973Z,14.73
2022-09-07T03:41:47.910Z,14.67
2022-09-07T03:44:14.526Z,14.70
2022-09-07T03:46:41.194Z,14.67
2022-09-07T03:49:07.769Z,14.67
2022-09-07T03:51:34.331Z,14.64
2022-09-07T03:54:00.951Z,14.63
2022-09-07T03:56:28.272Z,14.63
2022-09-07T03:58:55.665Z,14.56
2022-09-07T04:01:24.815Z,14.63
2022-09-07T04:03:52.122Z,14.62
2022-09-07T04:06:19.841Z,14.66
2022-09-07T04:08:46.689Z,14.69
2022-09-07T04:11:16.385Z,14.68
2022-09-07T04:13:43.454Z,14.68
2022-09-07T04:16:24.235Z,14.66
2022-09-07T04:18:54.701Z,14.68
2022-09-07T04:21:27.032Z,14.76
2022-09-07T04:23:53.876Z,14.74
2022-09-07T04:26:32.380Z,14.67
2022-09-07T04:29:01.172Z,14.80
2022-09-07T04:31:28.825Z,14.75
2022-09-07T04:33:56.514Z,14.78
2022-09-07T04:36:24.926Z,14.67
2022-09-07T04:38:56.965Z,14.75
2022-09-07T04:41:24.288Z,14.72
2022-09-07T04:43:55.245Z,14.72
2022-09-07T04:46:33.933Z,14.85
2022-09-07T04:49:04.021Z,14.80
2022-09-07T04:51:32.193Z,14.82
2022-09-07T04:54:00.862Z,14.88
2022-09-07T04:56:27.440Z,14.89
2022-09-07T04:58:54.391Z,14.81
2022-09-07T05:01:23.394Z,14.83
2022-09-07T05:03:50.322Z,14.76
2022-09-07T05:06:18.986Z,14.75
2022-09-07T05:08:51.652Z,14.85
2022-09-07T05:11:18.995Z,14.83
2022-09-07T05:13:45.852Z,14.83
2022-09-07T05:16:21.173Z,14.89
2022-09-07T05:18:53.130Z,14.91
2022-09-07T05:21:22.870Z,14.95
2022-09-07T05:23:51.436Z,14.96
2022-09-07T05:26:19.196Z,15.04
2022-09-07T05:28:46.156Z,15.14
2022-09-07T05:36:37.359Z,15.11
2022-09-07T05:39:05.901Z,15.08
2022-09-07T05:41:32.521Z,15.07
2022-09-07T05:46:45.793Z,15.05
2022-09-07T05:49:12.744Z,15.08
2022-09-07T05:51:39.349Z,15.13
2022-09-07T05:54:06.040Z,15.22
2022-09-07T05:56:36.440Z,15.26
2022-09-07T05:59:03.710Z,15.25
2022-09-07T06:01:30.868Z,15.32
2022-09-07T06:03:58.039Z,15.36
2022-09-07T06:06:24.674Z,15.32
2022-09-07T06:08:52.794Z,15.37
2022-09-07T06:11:24.335Z,15.38
2022-09-07T06:13:52.070Z,15.33
2022-09-07T06:16:20.230Z,15.45
2022-09-07T06:18:48.978Z,15.42
2022-09-07T06:21:21.097Z,15.38
2022-09-07T06:23:48.851Z,15.45
2022-09-07T06:26:17.118Z,15.51
2022-09-07T06:28:49.175Z,15.50
2022-09-07T06:31:19.913Z,15.54
2022-09-07T06:33:47.840Z,15.54
2022-09-07T06:36:19.904Z,15.51
2022-09-07T06:38:47.613Z,15.56
2022-09-07T06:44:12.651Z,15.52
2022-09-07T06:49:26.287Z,15.56
2022-09-07T06:51:53.218Z,15.59
2022-09-07T06:57:09.414Z,15.60
2022-09-07T06:59:37.303Z,15.60
2022-09-07T07:02:05.976Z,15.54
2022-09-07T07:04:37.760Z,15.61
2022-09-07T07:07:06.536Z,15.55
2022-09-07T07:09:33.193Z,15.61
2022-09-07T07:11:59.756Z,15.62
2022-09-07T07:14:26.874Z,15.61
2022-09-07T07:16:53.996Z,15.56
2022-09-07T07:19:20.569Z,15.54
2022-09-07T07:22:14.467Z,15.50
2022-09-07T07:24:33.666Z,15.43
2022-09-07T07:27:00.440Z,15.46
2022-09-07T07:29:28.287Z,15.53
2022-09-07T07:31:55.160Z,15.55
2022-09-07T07:34:21.940Z,15.46
2022-09-07T07:36:48.491Z,15.43
2022-09-07T07:42:05.861Z,15.20
2022-09-07T07:44:32.922Z,15.10
2022-09-07T07:46:59.703Z,15.00
2022-09-07T07:49:26.885Z,14.90
2022-09-07T07:54:44.133Z,14.79
2022-09-07T07:57:11.848Z,14.83
2022-09-07T07:59:39.223Z,14.73
2022-09-07T08:02:08.995Z,14.61
2022-09-07T08:04:36.301Z,14.55
2022-09-07T08:07:09.506Z,14.49
2022-09-07T08:09:44.876Z,14.60
2022-09-07T08:12:16.712Z,14.58
2022-09-07T08:14:43.556Z,14.67
2022-09-07T08:17:12.424Z,14.46
2022-09-07T08:19:39.087Z,14.60
2022-09-07T08:22:06.408Z,14.63
2022-09-07T08:24:33.561Z,14.67
2022-09-07T08:27:00.118Z,14.64
2022-09-07T08:29:27.290Z,14.54
2022-09-07T08:31:54.493Z,14.56
2022-09-07T08:34:22.023Z,14.52
2022-09-07T08:36:48.808Z,14.50
2022-09-07T08:39:15.430Z,14.58
2022-09-07T08:41:51.191Z,14.59
2022-09-07T08:44:48.232Z,14.61
2022-09-07T08:47:35.143Z,14.63
2022-09-07T08:50:04.482Z,14.66
2022-09-07T08:52:54.360Z,14.62
2022-09-07T08:55:29.352Z,14.58
2022-09-07T08:58:04.637Z,14.52
2022-09-07T09:00:31.593Z,14.44
2022-09-07T09:06:00.231Z,14.43
2022-09-07T09:08:48.659Z,14.37
2022-09-07T09:11:48.155Z,14.34
2022-09-07T09:17:35.420Z,14.53
2022-09-07T09:20:26.620Z,14.46
2022-09-07T09:23:12.283Z,14.61
2022-09-07T09:25:45.937Z,14.68
2022-09-07T09:28:13.000Z,14.81
2022-09-07T09:30:39.681Z,14.92
2022-09-07T09:33:25.900Z,15.11
2022-09-07T09:35:55.041Z,15.34
2022-09-07T09:38:32.169Z,15.51
2022-09-07T09:41:11.182Z,15.67
2022-09-07T09:43:58.216Z,15.95
2022-09-07T09:46:37.246Z,16.02
2022-09-07T09:49:14.332Z,16.17
2022-09-07T09:54:40.777Z,16.11
2022-09-07T09:57:16.831Z,16.22
2022-09-07T10:00:02.665Z,16.33
2022-09-07T10:05:28.125Z,16.76
2022-09-07T10:07:55.062Z,16.91
2022-09-07T10:10:21.792Z,17.02
2022-09-07T10:12:55.866Z,17.07
2022-09-07T10:15:40.574Z,17.21
2022-09-07T10:18:18.745Z,17.32
2022-09-07T10:20:45.450Z,17.46
2022-09-07T10:23:23.342Z,17.66
2022-09-07T10:25:50.082Z,17.56
2022-09-07T10:28:20.295Z,17.61
2022-09-07T10:31:15.010Z,17.67
2022-09-07T10:37:03.584Z,17.61
2022-09-07T10:39:40.640Z,17.67
2022-09-07T10:42:22.387Z,17.82
2022-09-07T10:45:04.407Z,17.77
2022-09-07T10:47:33.982Z,17.88
2022-09-07T10:50:24.935Z,17.95
2022-09-07T10:52:51.451Z,18.06
2022-09-07T10:55:26.220Z,18.26
2022-09-07T10:58:07.994Z,18.32
2022-09-07T11:00:45.843Z,18.31
2022-09-07T11:03:28.153Z,18.19
2022-09-07T11:06:19.070Z,18.37
2022-09-07T11:09:18.104Z,18.52
2022-09-07T11:12:03.085Z,18.69
2022-09-07T11:14:36.846Z,18.55
2022-09-07T11:17:17.169Z,18.72
2022-09-07T11:19:54.011Z,18.90
2022-09-07T11:22:39.271Z,18.93
2022-09-07T11:25:35.079Z,19.05
2022-09-07T11:28:21.072Z,19.15
2022-09-07T11:31:00.395Z,19.21
2022-09-07T11:33:35.118Z,19.26
2022-09-07T11:36:12.032Z,19.34
2022-09-07T11:38:49.475Z,19.27
2022-09-07T11:41:46.152Z,19.30
2022-09-07T11:44:26.610Z,19.41
2022-09-07T11:47:34.727Z,19.55
2022-09-07T11:50:01.331Z,19.56
2022-09-07T11:52:43.169Z,19.48
2022-09-07T11:55:21.046Z,19.59
2022-09-07T11:58:00.173Z,19.78
2022-09-07T12:01:04.271Z,19.68
2022-09-07T12:03:53.839Z,19.68
2022-09-07T12:06:43.314Z,19.68
2022-09-07T12:09:37.880Z,19.79
2022-09-07T12:12:25.850Z,20.09
2022-09-07T12:15:33.086Z,20.08
2022-09-07T12:18:05.620Z,20.14
2022-09-07T12:20:46.637Z,20.28
2022-09-07T12:23:16.102Z,20.27
2022-09-07T12:25:44.701Z,20.21
2022-09-07T12:28:34.483Z,20.19
2022-09-07T12:31:06.985Z,20.14
2022-09-07T12:33:36.661Z,20.11
2022-09-07T12:36:25.863Z,20.26
2022-09-07T12:39:06.307Z,20.39
2022-09-07T12:42:31.929Z,20.43
2022-09-07T12:44:38.189Z,20.37
2022-09-07T12:47:10.725Z,20.36
2022-09-07T12:50:06.476Z,20.42
2022-09-07T12:53:07.935Z,20.43
2022-09-07T12:59:19.484Z,20.46
2022-09-07T13:02:27.784Z,20.66
2022-09-07T13:04:54.464Z,20.73
2022-09-07T13:08:07.986Z,20.81
2022-09-07T13:10:43.070Z,20.99
2022-09-07T13:13:15.830Z,21.03
2022-09-07T13:15:49.484Z,21.17
2022-09-07T13:18:28.653Z,21.13
2022-09-07T13:21:07.306Z,21.24
2022-09-07T13:23:35.780Z,21.33
2022-09-07T13:26:04.834Z,21.30
2022-09-07T13:28:40.170Z,21.27
2022-09-07T13:31:41.084Z,21.35
2022-09-07T13:34:32.554Z,21.34
2022-09-07T13:37:00.569Z,21.39
2022-09-07T13:39:29.083Z,21.47
2022-09-07T13:41:58.311Z,21.43
2022-09-07T13:44:32.211Z,21.55
2022-09-07T13:47:26.431Z,21.70
2022-09-07T13:50:19.421Z,21.93
2022-09-07T13:53:01.292Z,21.90
2022-09-07T13:55:37.602Z,21.72
2022-09-07T13:58:25.245Z,21.75
2022-09-07T14:01:04.646Z,21.77
2022-09-07T14:03:39.291Z,21.84
2022-09-07T14:06:21.305Z,21.83
2022-09-07T14:08:50.632Z,21.69
2022-09-07T14:11:22.433Z,21.77
2022-09-07T14:14:25.942Z,22.00
2022-09-07T14:17:01.893Z,22.08
2022-09-07T14:19:41.874Z,22.13
2022-09-07T14:22:39.625Z,22.03
2022-09-07T14:25:07.839Z,22.08
2022-09-07T14:27:46.312Z,22.22
2022-09-07T14:30:29.441Z,22.10
2022-09-07T14:33:17.290Z,22.06
2022-09-07T14:35:44.311Z,22.26
2022-09-07T14:38:14.290Z,22.45
2022-09-07T14:40:41.553Z,22.46
2022-09-07T14:43:28.600Z,22.55
2022-09-07T14:46:30.073Z,22.53
2022-09-07T14:49:02.594Z,22.58
2022-09-07T14:51:36.140Z,22.58
2022-09-07T14:54:07.941Z,22.65
2022-09-07T14:56:38.093Z,22.57
2022-09-07T14:59:40.699Z,22.64
2022-09-07T15:02:19.736Z,22.74
2022-09-07T15:04:48.073Z,22.77
2022-09-07T15:07:30.590Z,22.78
2022-09-07T15:10:32.398Z,22.75
2022-09-07T15:13:01.384Z,22.74
2022-09-07T15:15:34.633Z,22.79
2022-09-07T15:18:08.804Z,22.81
2022-09-07T15:20:36.927Z,22.56
2022-09-07T15:23:29.911Z,22.61
2022-09-07T15:25:58.756Z,22.59
2022-09-07T15:34:19.350Z,22.58
2022-09-07T15:36:53.609Z,22.53
2022-09-07T15:39:26.643Z,22.48
2022-09-07T15:41:53.474Z,22.44
2022-09-07T15:44:24.961Z,22.37
2022-09-07T15:49:53.775Z,22.23
2022-09-07T15:52:20.656Z,22.22
2022-09-07T15:54:47.162Z,22.18
2022-09-07T16:00:00.835Z,21.97
2022-09-07T16:05:14.231Z,22.02
2022-09-07T16:10:31.016Z,21.98
2022-09-07T16:13:02.698Z,22.05
2022-09-07T16:15:30.367Z,21.95
2022-09-07T16:17:57.121Z,21.92
2022-09-07T16:20:23.745Z,21.95
2022-09-07T16:25:37.476Z,21.86
2022-09-07T16:28:05.811Z,21.78
2022-09-07T16:30:32.825Z,21.73
2022-09-07T16:32:59.472Z,21.73
2022-09-07T16:35:26.031Z,21.70
2022-09-07T16:40:42.223Z,21.60
2022-09-07T16:43:10.006Z,21.50
2022-09-07T16:48:23.412Z,21.43
2022-09-07T16:50:58.941Z,21.38
2022-09-07T16:53:32.216Z,21.29
2022-09-07T16:56:12.522Z,21.26
2022-09-07T16:58:41.955Z,21.23
2022-09-07T17:01:10.811Z,21.11
2022-09-07T17:03:38.637Z,21.14
2022-09-07T17:06:07.967Z,21.12
2022-09-07T17:08:36.143Z,21.13
2022-09-07T17:11:05.586Z,21.10
2022-09-07T17:13:34.094Z,20.97
2022-09-07T17:16:08.344Z,20.94
2022-09-07T17:21:22.771Z,20.89
2022-09-07T17:23:54.916Z,20.85
2022-09-07T17:26:26.585Z,20.80
2022-09-07T17:29:00.213Z,20.76
2022-09-07T17:34:23.241Z,20.61
2022-09-07T17:36:49.832Z,20.60
2022-09-07T17:39:17.992Z,20.50
2022-09-07T17:41:45.674Z,20.40
2022-09-07T17:44:12.465Z,20.30
2022-09-07T17:46:39.422Z,20.18
2022-09-07T17:49:10.403Z,20.11
2022-09-07T17:51:37.064Z,19.94
2022-09-07T17:54:10.921Z,19.79
2022-09-07T17:56:39.284Z,19.71
2022-09-07T18:01:54.297Z,19.51
2022-09-07T18:04:21.385Z,19.40
2022-09-07T18:06:48.435Z,19.28
2022-09-07T18:09:15.106Z,19.19
2022-09-07T18:11:45.946Z,19.09
2022-09-07T18:14:14.577Z,19.01
2022-09-07T18:16:43.462Z,18.85
2022-09-07T18:19:12.120Z,18.73
2022-09-07T18:21:41.098Z,18.68
2022-09-07T18:24:19.244Z,18.70
2022-09-07T18:26:52.047Z,18.70
2022-09-07T18:29:30.005Z,18.69
2022-09-07T18:32:00.326Z,18.59
2022-09-07T18:34:28.755Z,18.49
2022-09-07T18:36:55.540Z,18.41
2022-09-07T18:39:23.101Z,18.40
2022-09-07T18:41:49.808Z,18.33
2022-09-07T18:47:03.635Z,18.06
2022-09-07T18:49:30.787Z,18.10
2022-09-07T18:54:45.469Z,17.89
2022-09-07T18:57:16.234Z,17.94
2022-09-07T18:59:43.688Z,17.95
2022-09-07T19:02:11.251Z,17.82
2022-09-07T19:07:29.670Z,17.88
2022-09-07T19:09:56.842Z,17.82
2022-09-07T19:12:24.785Z,17.87
2022-09-07T19:14:51.945Z,17.96
2022-09-07T19:17:20.598Z,18.04
2022-09-07T19:19:48.604Z,18.02
2022-09-07T19:22:16.083Z,18.01
2022-09-07T19:24:42.685Z,18.18
2022-09-07T19:27:09.969Z,18.16
2022-09-07T19:29:36.490Z,18.14
2022-09-07T19:32:06.979Z,18.14
2022-09-07T19:34:36.042Z,18.19
2022-09-07T19:37:04.537Z,18.31
2022-09-07T19:39:32.174Z,18.18
2022-09-07T19:42:00.182Z,18.10
2022-09-07T19:44:26.818Z,18.05
2022-09-07T19:46:54.187Z,18.06
2022-09-07T19:49:21.495Z,18.10
2022-09-07T19:51:52.221Z,18.12
2022-09-07T19:54:19.263Z,18.07
2022-09-07T19:56:46.709Z,18.16
2022-09-07T19:59:14.782Z,18.13
2022-09-07T20:01:46.539Z,18.06
2022-09-07T20:04:19.809Z,18.06
2022-09-07T20:06:48.504Z,18.02
2022-09-07T20:09:15.081Z,18.00
2022-09-07T20:11:46.278Z,17.98
2022-09-07T20:14:13.797Z,17.94
2022-09-07T20:16:41.753Z,18.08
2022-09-07T20:19:11.009Z,18.08
2022-09-07T20:21:37.631Z,18.06
2022-09-07T20:24:05.275Z,18.07
2022-09-07T20:26:32.606Z,18.06
2022-09-07T20:29:16.705Z,18.02
2022-09-07T20:31:47.085Z,18.00
2022-09-07T20:34:14.445Z,18.01
2022-09-07T20:36:41.506Z,17.90
2022-09-07T20:39:08.143Z,17.75
2022-09-07T20:41:35.187Z,17.83
2022-09-07T20:44:04.345Z,17.91
2022-09-07T20:46:31.875Z,17.79
2022-09-07T20:48:59.199Z,17.69
2022-09-07T20:51:26.178Z,17.64
2022-09-07T20:53:52.889Z,17.55
2022-09-07T20:56:29.225Z,17.49
2022-09-07T20:59:00.124Z,17.41
2022-09-07T21:01:27.810Z,17.32
2022-09-07T21:03:56.635Z,17.39
2022-09-07T21:06:25.071Z,17.41
2022-09-07T21:08:52.385Z,17.36
2022-09-07T21:11:24.783Z,17.35
2022-09-07T21:14:08.356Z,17.33
2022-09-07T21:16:36.406Z,17.18
2022-09-07T21:19:05.895Z,17.14
2022-09-07T21:21:39.430Z,17.09
2022-09-07T21:24:07.494Z,16.99
2022-09-07T21:26:34.032Z,16.91
2022-09-07T21:29:02.809Z,16.96
2022-09-07T21:31:31.332Z,16.84
2022-09-07T21:34:00.114Z,16.82
2022-09-07T21:36:27.409Z,16.76
2022-09-07T21:38:54.459Z,16.77
2022-09-07T21:41:22.876Z,16.71
2022-09-07T21:43:53.679Z,16.64
2022-09-07T21:46:20.293Z,16.60
2022-09-07T21:48:46.876Z,16.57
2022-09-07T21:51:14.335Z,16.52
2022-09-07T21:53:42.071Z,16.44
2022-09-07T21:56:14.118Z,16.39
2022-09-07T21:58:41.093Z,16.37
2022-09-07T22:01:12.700Z,16.31
2022-09-07T22:03:40.419Z,16.23
2022-09-07T22:06:08.437Z,16.24
2022-09-07T22:08:37.026Z,16.30
2022-09-07T22:11:26.790Z,16.30
2022-09-07T22:13:55.770Z,16.28
2022-09-07T22:16:22.552Z,16.21
2022-09-07T22:18:49.445Z,16.24
2022-09-07T22:21:19.887Z,16.25
2022-09-07T22:23:49.893Z,16.17
2022-09-07T22:26:21.539Z,16.02
2022-09-07T22:28:48.707Z,15.98
2022-09-07T22:31:17.230Z,15.99
2022-09-07T22:33:45.012Z,15.99
2022-09-07T22:36:15.717Z,15.93
2022-09-07T22:38:44.034Z,15.94
2022-09-07T22:41:19.885Z,15.86
2022-09-07T22:43:46.887Z,15.86
2022-09-07T22:46:14.927Z,15.86
2022-09-07T22:48:42.139Z,15.77
2022-09-07T22:51:09.523Z,15.60
2022-09-07T22:53:37.783Z,15.67
2022-09-07T22:56:10.593Z,15.59
2022-09-07T22:58:37.761Z,15.59
2022-09-07T23:01:05.926Z,15.58
2022-09-07T23:03:34.541Z,15.57
2022-09-07T23:06:01.889Z,15.49
2022-09-07T23:08:28.998Z,15.56
2022-09-07T23:10:55.574Z,15.51
2022-09-07T23:13:22.225Z,15.45
2022-09-07T23:15:49.468Z,15.45
2022-09-07T23:18:18.818Z,15.45
2022-09-07T23:20:45.731Z,15.43
2022-09-07T23:23:13.422Z,15.38
2022-09-07T23:25:42.284Z,15.32
2022-09-07T23:28:12.581Z,15.17
2022-09-07T23:30:42.396Z,15.16
2022-09-07T23:33:08.928Z,15.17
2022-09-07T23:35:36.046Z,15.22
2022-09-07T23:38:02.684Z,15.34
2022-09-07T23:40:30.495Z,15.36
2022-09-07T23:42:57.507Z,15.24
2022-09-07T23:45:24.779Z,15.16
2022-09-07T23:47:51.407Z,15.19
2022-09-07T23:50:18.587Z,15.02
2022-09-07T23:52:45.493Z,14.98
2022-09-07T23:55:12.222Z,14.87
2022-09-07T23:57:39.038Z,14.77
